sensor_id;sensor_type;location;lat;lon;timestamp;P1;durP1;ratioP1;P2;durP2;ratioP2
62554;SDS011;48610;52.144;8.624;2023-12-04T00:00:36;17.40;;;9.70;;
62554;SDS011;48610;52.144;8.624;2023-12-04T00:03:37;17.52;;;9.13;;
62554;SDS011;48610;52.144;8.624;2023-12-04T00:06:37;11.85;;;7.07;;
62554;SDS011;48610;52.144;8.624;2023-12-04T00:09:38;20.02;;;9.00;;
62554;SDS011;48610;52.144;8.624;2023-12-04T00:12:38;9.63;;;5.10;;
62554;SDS011;48610;52.144;8.624;2023-12-04T00:15:39;6.90;;;4.32;;
62554;SDS011;48610;52.144;8.624;2023-12-04T00:18:40;21.05;;;8.65;;
62554;SDS011;48610;52.144;8.624;2023-12-04T00:21:40;24.00;;;11.95;;
62554;SDS011;48610;52.144;8.624;2023-12-04T00:24:41;20.48;;;4.00;;
62554;SDS011;48610;52.144;8.624;2023-12-04T00:27:41;5.88;;;4.10;;
62554;SDS011;48610;52.144;8.624;2023-12-04T00:30:42;16.40;;;7.53;;
62554;SDS011;48610;52.144;8.624;2023-12-04T00:33:42;18.50;;;9.43;;
62554;SDS011;48610;52.144;8.624;2023-12-04T00:36:43;25.50;;;11.13;;
62554;SDS011;48610;52.144;8.624;2023-12-04T00:39:44;24.67;;;11.90;;
62554;SDS011;48610;52.144;8.624;2023-12-04T00:42:44;26.02;;;12.52;;
62554;SDS011;48610;52.144;8.624;2023-12-04T00:45:45;26.52;;;11.25;;
62554;SDS011;48610;52.144;8.624;2023-12-04T00:48:45;22.23;;;9.73;;
62554;SDS011;48610;52.144;8.624;2023-12-04T00:51:46;15.18;;;7.03;;
62554;SDS011;48610;52.144;8.624;2023-12-04T00:54:47;27.25;;;11.95;;
62554;SDS011;48610;52.144;8.624;2023-12-04T00:57:47;23.50;;;12.25;;
62554;SDS011;48610;52.144;8.624;2023-12-04T01:00:48;15.20;;;7.90;;
62554;SDS011;48610;52.144;8.624;2023-12-04T01:03:50;8.75;;;4.45;;
62554;SDS011;48610;52.144;8.624;2023-12-04T01:06:51;10.82;;;6.30;;
62554;SDS011;48610;52.144;8.624;2023-12-04T01:09:52;16.38;;;7.53;;
62554;SDS011;48610;52.144;8.624;2023-12-04T01:12:53;20.83;;;10.13;;
62554;SDS011;48610;52.144;8.624;2023-12-04T01:15:53;15.52;;;8.00;;
62554;SDS011;48610;52.144;8.624;2023-12-04T01:18:54;16.17;;;8.65;;
62554;SDS011;48610;52.144;8.624;2023-12-04T01:21:54;22.10;;;9.55;;
62554;SDS011;48610;52.144;8.624;2023-12-04T01:24:55;4.68;;;3.33;;
62554;SDS011;48610;52.144;8.624;2023-12-04T01:27:56;24.55;;;9.05;;
62554;SDS011;48610;52.144;8.624;2023-12-04T01:30:56;18.23;;;8.32;;
62554;SDS011;48610;52.144;8.624;2023-12-04T01:33:57;24.00;;;9.10;;
62554;SDS011;48610;52.144;8.624;2023-12-04T01:36:57;7.68;;;4.00;;
62554;SDS011;48610;52.144;8.624;2023-12-04T01:39:58;3.53;;;2.65;;
62554;SDS011;48610;52.144;8.624;2023-12-04T01:42:58;20.80;;;9.30;;
62554;SDS011;48610;52.144;8.624;2023-12-04T01:45:59;15.18;;;3.72;;
62554;SDS011;48610;52.144;8.624;2023-12-04T01:49:01;25.60;;;11.48;;
62554;SDS011;48610;52.144;8.624;2023-12-04T01:52:03;9.75;;;6.13;;
62554;SDS011;48610;52.144;8.624;2023-12-04T01:55:04;22.10;;;10.00;;
62554;SDS011;48610;52.144;8.624;2023-12-04T01:58:06;19.15;;;8.73;;
62554;SDS011;48610;52.144;8.624;2023-12-04T02:01:07;30.05;;;11.57;;
62554;SDS011;48610;52.144;8.624;2023-12-04T02:04:08;18.05;;;9.25;;
62554;SDS011;48610;52.144;8.624;2023-12-04T02:07:09;17.10;;;7.55;;
62554;SDS011;48610;52.144;8.624;2023-12-04T02:10:09;15.13;;;6.88;;
62554;SDS011;48610;52.144;8.624;2023-12-04T02:13:10;14.70;;;6.82;;
62554;SDS011;48610;52.144;8.624;2023-12-04T02:16:11;20.80;;;9.88;;
62554;SDS011;48610;52.144;8.624;2023-12-04T02:19:14;12.50;;;4.57;;
62554;SDS011;48610;52.144;8.624;2023-12-04T02:22:15;10.02;;;5.80;;
62554;SDS011;48610;52.144;8.624;2023-12-04T02:25:18;21.25;;;10.90;;
62554;SDS011;48610;52.144;8.624;2023-12-04T02:28:20;14.02;;;7.38;;
62554;SDS011;48610;52.144;8.624;2023-12-04T02:31:21;18.92;;;8.18;;
62554;SDS011;48610;52.144;8.624;2023-12-04T02:34:24;31.38;;;15.13;;
62554;SDS011;48610;52.144;8.624;2023-12-04T02:37:25;32.55;;;15.77;;
62554;SDS011;48610;52.144;8.624;2023-12-04T02:40:26;11.57;;;5.78;;
62554;SDS011;48610;52.144;8.624;2023-12-04T02:43:27;19.85;;;9.38;;
62554;SDS011;48610;52.144;8.624;2023-12-04T02:46:28;24.33;;;11.90;;
62554;SDS011;48610;52.144;8.624;2023-12-04T02:49:28;15.20;;;8.07;;
62554;SDS011;48610;52.144;8.624;2023-12-04T02:52:29;13.80;;;7.70;;
62554;SDS011;48610;52.144;8.624;2023-12-04T02:55:29;10.02;;;5.03;;
62554;SDS011;48610;52.144;8.624;2023-12-04T02:58:30;17.65;;;7.90;;
62554;SDS011;48610;52.144;8.624;2023-12-04T03:01:30;15.75;;;7.63;;
62554;SDS011;48610;52.144;8.624;2023-12-04T03:04:31;3.70;;;2.92;;
62554;SDS011;48610;52.144;8.624;2023-12-04T03:07:32;16.45;;;8.95;;
62554;SDS011;48610;52.144;8.624;2023-12-04T03:10:32;13.05;;;5.97;;
62554;SDS011;48610;52.144;8.624;2023-12-04T03:13:33;9.43;;;5.38;;
62554;SDS011;48610;52.144;8.624;2023-12-04T03:16:34;7.55;;;4.55;;
62554;SDS011;48610;52.144;8.624;2023-12-04T03:19:35;11.63;;;7.00;;
62554;SDS011;48610;52.144;8.624;2023-12-04T03:22:36;16.05;;;8.10;;
62554;SDS011;48610;52.144;8.624;2023-12-04T03:25:36;6.55;;;4.45;;
62554;SDS011;48610;52.144;8.624;2023-12-04T03:28:38;4.97;;;3.78;;
62554;SDS011;48610;52.144;8.624;2023-12-04T03:31:40;16.90;;;7.97;;
62554;SDS011;48610;52.144;8.624;2023-12-04T03:34:40;4.85;;;3.58;;
62554;SDS011;48610;52.144;8.624;2023-12-04T03:37:41;14.20;;;4.85;;
62554;SDS011;48610;52.144;8.624;2023-12-04T03:40:41;16.85;;;9.32;;
62554;SDS011;48610;52.144;8.624;2023-12-04T03:43:42;13.10;;;7.50;;
62554;SDS011;48610;52.144;8.624;2023-12-04T03:46:43;17.80;;;7.40;;
62554;SDS011;48610;52.144;8.624;2023-12-04T03:49:43;11.45;;;5.93;;
62554;SDS011;48610;52.144;8.624;2023-12-04T03:52:44;14.98;;;8.52;;
62554;SDS011;48610;52.144;8.624;2023-12-04T03:55:45;13.98;;;7.53;;
62554;SDS011;48610;52.144;8.624;2023-12-04T03:58:45;12.95;;;6.43;;
62554;SDS011;48610;52.144;8.624;2023-12-04T04:01:46;11.35;;;6.45;;
62554;SDS011;48610;52.144;8.624;2023-12-04T04:04:46;13.52;;;7.03;;
62554;SDS011;48610;52.144;8.624;2023-12-04T04:07:47;14.68;;;7.85;;
62554;SDS011;48610;52.144;8.624;2023-12-04T04:10:48;14.65;;;9.57;;
62554;SDS011;48610;52.144;8.624;2023-12-04T04:13:48;14.45;;;7.68;;
62554;SDS011;48610;52.144;8.624;2023-12-04T04:16:49;9.70;;;5.63;;
62554;SDS011;48610;52.144;8.624;2023-12-04T04:19:50;6.38;;;3.38;;
62554;SDS011;48610;52.144;8.624;2023-12-04T04:22:50;10.75;;;6.00;;
62554;SDS011;48610;52.144;8.624;2023-12-04T04:25:51;8.55;;;5.20;;
62554;SDS011;48610;52.144;8.624;2023-12-04T04:28:52;9.57;;;4.78;;
62554;SDS011;48610;52.144;8.624;2023-12-04T04:31:53;13.15;;;6.30;;
62554;SDS011;48610;52.144;8.624;2023-12-04T04:34:53;7.35;;;4.80;;
62554;SDS011;48610;52.144;8.624;2023-12-04T04:37:54;14.43;;;6.93;;
62554;SDS011;48610;52.144;8.624;2023-12-04T04:40:54;8.77;;;4.97;;
62554;SDS011;48610;52.144;8.624;2023-12-04T04:43:55;10.75;;;6.38;;
62554;SDS011;48610;52.144;8.624;2023-12-04T04:46:55;14.05;;;6.75;;
62554;SDS011;48610;52.144;8.624;2023-12-04T04:49:56;5.85;;;4.32;;
62554;SDS011;48610;52.144;8.624;2023-12-04T04:52:57;8.93;;;4.60;;
62554;SDS011;48610;52.144;8.624;2023-12-04T04:55:57;10.38;;;6.88;;
62554;SDS011;48610;52.144;8.624;2023-12-04T04:58:58;21.02;;;8.13;;
62554;SDS011;48610;52.144;8.624;2023-12-04T05:01:58;12.38;;;7.20;;
62554;SDS011;48610;52.144;8.624;2023-12-04T05:05:00;16.02;;;7.25;;
62554;SDS011;48610;52.144;8.624;2023-12-04T05:08:02;7.28;;;4.75;;
62554;SDS011;48610;52.144;8.624;2023-12-04T05:11:03;14.05;;;8.18;;
62554;SDS011;48610;52.144;8.624;2023-12-04T05:14:04;10.20;;;5.82;;
62554;SDS011;48610;52.144;8.624;2023-12-04T05:17:05;9.35;;;4.47;;
62554;SDS011;48610;52.144;8.624;2023-12-04T05:20:05;10.70;;;6.05;;
62554;SDS011;48610;52.144;8.624;2023-12-04T05:23:07;11.35;;;6.13;;
62554;SDS011;48610;52.144;8.624;2023-12-04T05:26:08;6.65;;;4.43;;
62554;SDS011;48610;52.144;8.624;2023-12-04T05:29:08;9.98;;;5.32;;
62554;SDS011;48610;52.144;8.624;2023-12-04T05:32:09;10.93;;;6.40;;
62554;SDS011;48610;52.144;8.624;2023-12-04T05:35:10;13.23;;;6.18;;
62554;SDS011;48610;52.144;8.624;2023-12-04T05:38:10;12.57;;;6.70;;
62554;SDS011;48610;52.144;8.624;2023-12-04T05:41:11;4.82;;;3.72;;
62554;SDS011;48610;52.144;8.624;2023-12-04T05:44:11;12.43;;;7.03;;
62554;SDS011;48610;52.144;8.624;2023-12-04T05:47:12;15.13;;;7.90;;
62554;SDS011;48610;52.144;8.624;2023-12-04T05:50:12;8.00;;;5.10;;
62554;SDS011;48610;52.144;8.624;2023-12-04T05:53:13;9.07;;;2.38;;
62554;SDS011;48610;52.144;8.624;2023-12-04T05:56:14;9.32;;;4.97;;
62554;SDS011;48610;52.144;8.624;2023-12-04T05:59:14;10.10;;;6.30;;
62554;SDS011;48610;52.144;8.624;2023-12-04T06:02:15;3.75;;;2.92;;
62554;SDS011;48610;52.144;8.624;2023-12-04T06:05:16;8.70;;;4.95;;
62554;SDS011;48610;52.144;8.624;2023-12-04T06:08:16;5.95;;;3.30;;
62554;SDS011;48610;52.144;8.624;2023-12-04T06:11:17;9.60;;;5.30;;
62554;SDS011;48610;52.144;8.624;2023-12-04T06:14:17;6.10;;;4.07;;
62554;SDS011;48610;52.144;8.624;2023-12-04T06:17:18;8.50;;;5.65;;
62554;SDS011;48610;52.144;8.624;2023-12-04T06:20:18;5.53;;;4.03;;
62554;SDS011;48610;52.144;8.624;2023-12-04T06:23:20;7.60;;;4.75;;
62554;SDS011;48610;52.144;8.624;2023-12-04T06:26:20;6.53;;;4.28;;
62554;SDS011;48610;52.144;8.624;2023-12-04T06:29:21;6.35;;;4.22;;
62554;SDS011;48610;52.144;8.624;2023-12-04T06:32:22;5.03;;;4.07;;
62554;SDS011;48610;52.144;8.624;2023-12-04T06:35:23;9.77;;;5.60;;
62554;SDS011;48610;52.144;8.624;2023-12-04T06:38:24;8.10;;;4.93;;
62554;SDS011;48610;52.144;8.624;2023-12-04T06:41:26;5.03;;;2.58;;
62554;SDS011;48610;52.144;8.624;2023-12-04T06:44:26;9.77;;;5.25;;
62554;SDS011;48610;52.144;8.624;2023-12-04T06:47:27;9.65;;;5.20;;
62554;SDS011;48610;52.144;8.624;2023-12-04T06:50:30;6.70;;;4.22;;
62554;SDS011;48610;52.144;8.624;2023-12-04T06:53:31;8.32;;;5.30;;
62554;SDS011;48610;52.144;8.624;2023-12-04T06:56:32;2.78;;;2.47;;
62554;SDS011;48610;52.144;8.624;2023-12-04T06:59:32;3.67;;;3.33;;
62554;SDS011;48610;52.144;8.624;2023-12-04T07:02:33;6.90;;;4.25;;
62554;SDS011;48610;52.144;8.624;2023-12-04T07:05:34;7.55;;;3.72;;
62554;SDS011;48610;52.144;8.624;2023-12-04T07:08:34;5.35;;;3.70;;
62554;SDS011;48610;52.144;8.624;2023-12-04T07:11:35;6.10;;;4.05;;
62554;SDS011;48610;52.144;8.624;2023-12-04T07:14:36;4.47;;;2.75;;
62554;SDS011;48610;52.144;8.624;2023-12-04T07:17:36;4.93;;;3.42;;
62554;SDS011;48610;52.144;8.624;2023-12-04T07:20:38;4.70;;;2.45;;
62554;SDS011;48610;52.144;8.624;2023-12-04T07:23:38;8.27;;;5.45;;
62554;SDS011;48610;52.144;8.624;2023-12-04T07:26:39;7.30;;;5.30;;
62554;SDS011;48610;52.144;8.624;2023-12-04T07:29:40;6.65;;;4.63;;
62554;SDS011;48610;52.144;8.624;2023-12-04T07:32:40;6.05;;;3.95;;
62554;SDS011;48610;52.144;8.624;2023-12-04T07:35:41;4.97;;;3.45;;
62554;SDS011;48610;52.144;8.624;2023-12-04T07:38:42;8.02;;;4.00;;
62554;SDS011;48610;52.144;8.624;2023-12-04T07:41:42;9.93;;;5.72;;
62554;SDS011;48610;52.144;8.624;2023-12-04T07:44:43;8.13;;;4.55;;
62554;SDS011;48610;52.144;8.624;2023-12-04T07:47:44;2.17;;;1.63;;
62554;SDS011;48610;52.144;8.624;2023-12-04T07:50:44;10.77;;;6.57;;
62554;SDS011;48610;52.144;8.624;2023-12-04T07:53:45;6.95;;;4.60;;
62554;SDS011;48610;52.144;8.624;2023-12-04T07:56:45;6.28;;;4.57;;
62554;SDS011;48610;52.144;8.624;2023-12-04T07:59:46;6.00;;;3.55;;
62554;SDS011;48610;52.144;8.624;2023-12-04T08:02:47;13.80;;;7.53;;
62554;SDS011;48610;52.144;8.624;2023-12-04T08:05:47;5.20;;;3.22;;
62554;SDS011;48610;52.144;8.624;2023-12-04T08:08:48;7.35;;;4.75;;
62554;SDS011;48610;52.144;8.624;2023-12-04T08:11:49;8.38;;;5.15;;
62554;SDS011;48610;52.144;8.624;2023-12-04T08:14:49;9.88;;;4.47;;
62554;SDS011;48610;52.144;8.624;2023-12-04T08:17:50;10.98;;;4.80;;
62554;SDS011;48610;52.144;8.624;2023-12-04T08:20:51;7.00;;;3.95;;
62554;SDS011;48610;52.144;8.624;2023-12-04T08:23:52;2.53;;;1.73;;
62554;SDS011;48610;52.144;8.624;2023-12-04T08:26:52;5.53;;;3.55;;
62554;SDS011;48610;52.144;8.624;2023-12-04T08:29:53;7.05;;;3.55;;
62554;SDS011;48610;52.144;8.624;2023-12-04T08:32:54;6.13;;;3.55;;
62554;SDS011;48610;52.144;8.624;2023-12-04T08:35:55;2.78;;;2.38;;
62554;SDS011;48610;52.144;8.624;2023-12-04T08:38:55;10.63;;;5.03;;
62554;SDS011;48610;52.144;8.624;2023-12-04T08:41:56;7.22;;;4.97;;
62554;SDS011;48610;52.144;8.624;2023-12-04T08:44:57;3.88;;;2.92;;
62554;SDS011;48610;52.144;8.624;2023-12-04T08:47:58;10.90;;;5.57;;
62554;SDS011;48610;52.144;8.624;2023-12-04T08:50:58;4.85;;;2.97;;
62554;SDS011;48610;52.144;8.624;2023-12-04T08:53:59;10.00;;;6.13;;
62554;SDS011;48610;52.144;8.624;2023-12-04T08:57:00;9.93;;;6.20;;
62554;SDS011;48610;52.144;8.624;2023-12-04T09:00:00;8.43;;;5.35;;
62554;SDS011;48610;52.144;8.624;2023-12-04T09:03:01;9.25;;;5.45;;
62554;SDS011;48610;52.144;8.624;2023-12-04T09:06:02;5.63;;;3.88;;
62554;SDS011;48610;52.144;8.624;2023-12-04T09:09:03;11.85;;;6.10;;
62554;SDS011;48610;52.144;8.624;2023-12-04T09:12:04;5.88;;;3.97;;
62554;SDS011;48610;52.144;8.624;2023-12-04T09:15:05;4.18;;;3.22;;
62554;SDS011;48610;52.144;8.624;2023-12-04T09:18:06;11.90;;;5.15;;
62554;SDS011;48610;52.144;8.624;2023-12-04T09:21:06;10.50;;;5.70;;
62554;SDS011;48610;52.144;8.624;2023-12-04T09:24:08;8.65;;;4.63;;
62554;SDS011;48610;52.144;8.624;2023-12-04T09:27:08;10.93;;;5.95;;
62554;SDS011;48610;52.144;8.624;2023-12-04T09:30:09;8.77;;;5.10;;
62554;SDS011;48610;52.144;8.624;2023-12-04T09:33:10;7.20;;;4.72;;
62554;SDS011;48610;52.144;8.624;2023-12-04T09:36:11;9.38;;;4.47;;
62554;SDS011;48610;52.144;8.624;2023-12-04T09:39:11;4.07;;;2.80;;
62554;SDS011;48610;52.144;8.624;2023-12-04T09:42:12;7.85;;;4.80;;
62554;SDS011;48610;52.144;8.624;2023-12-04T09:45:13;4.53;;;3.28;;
62554;SDS011;48610;52.144;8.624;2023-12-04T09:48:15;4.97;;;3.45;;
62554;SDS011;48610;52.144;8.624;2023-12-04T09:51:16;7.38;;;4.10;;
62554;SDS011;48610;52.144;8.624;2023-12-04T09:54:18;5.22;;;3.35;;
62554;SDS011;48610;52.144;8.624;2023-12-04T09:57:19;8.15;;;5.03;;
62554;SDS011;48610;52.144;8.624;2023-12-04T10:00:24;5.45;;;4.07;;
62554;SDS011;48610;52.144;8.624;2023-12-04T10:03:25;5.47;;;3.70;;
62554;SDS011;48610;52.144;8.624;2023-12-04T10:06:27;5.68;;;4.30;;
62554;SDS011;48610;52.144;8.624;2023-12-04T10:09:29;11.30;;;6.20;;
62554;SDS011;48610;52.144;8.624;2023-12-04T10:12:30;4.50;;;2.80;;
62554;SDS011;48610;52.144;8.624;2023-12-04T10:15:31;4.47;;;3.40;;
62554;SDS011;48610;52.144;8.624;2023-12-04T10:18:33;6.70;;;4.47;;
62554;SDS011;48610;52.144;8.624;2023-12-04T10:21:34;5.40;;;3.83;;
62554;SDS011;48610;52.144;8.624;2023-12-04T10:24:36;5.78;;;4.15;;
62554;SDS011;48610;52.144;8.624;2023-12-04T10:27:38;5.10;;;3.50;;
62554;SDS011;48610;52.144;8.624;2023-12-04T10:30:39;7.38;;;5.20;;
62554;SDS011;48610;52.144;8.624;2023-12-04T10:33:39;8.95;;;5.35;;
62554;SDS011;48610;52.144;8.624;2023-12-04T10:36:41;7.10;;;4.68;;
62554;SDS011;48610;52.144;8.624;2023-12-04T10:39:46;9.75;;;5.75;;
62554;SDS011;48610;52.144;8.624;2023-12-04T10:42:48;7.78;;;4.50;;
62554;SDS011;48610;52.144;8.624;2023-12-04T10:45:49;7.07;;;4.75;;
62554;SDS011;48610;52.144;8.624;2023-12-04T10:48:50;2.60;;;2.35;;
62554;SDS011;48610;52.144;8.624;2023-12-04T10:51:51;5.07;;;2.88;;
62554;SDS011;48610;52.144;8.624;2023-12-04T10:54:52;6.20;;;4.07;;
62554;SDS011;48610;52.144;8.624;2023-12-04T10:57:53;4.55;;;3.47;;
62554;SDS011;48610;52.144;8.624;2023-12-04T11:00:54;6.10;;;3.95;;
62554;SDS011;48610;52.144;8.624;2023-12-04T11:04:00;7.70;;;4.32;;
62554;SDS011;48610;52.144;8.624;2023-12-04T11:07:07;7.15;;;3.40;;
62554;SDS011;48610;52.144;8.624;2023-12-04T11:10:10;8.40;;;4.10;;
62554;SDS011;48610;52.144;8.624;2023-12-04T11:13:21;7.45;;;4.38;;
62554;SDS011;48610;52.144;8.624;2023-12-04T11:16:44;3.13;;;2.78;;
62554;SDS011;48610;52.144;8.624;2023-12-04T11:19:55;4.63;;;3.22;;
62554;SDS011;48610;52.144;8.624;2023-12-04T11:23:03;4.65;;;2.00;;
62554;SDS011;48610;52.144;8.624;2023-12-04T11:26:06;10.30;;;4.93;;
62554;SDS011;48610;52.144;8.624;2023-12-04T11:29:09;9.02;;;4.70;;
62554;SDS011;48610;52.144;8.624;2023-12-04T11:32:15;7.68;;;4.78;;
62554;SDS011;48610;52.144;8.624;2023-12-04T11:35:20;6.05;;;3.63;;
62554;SDS011;48610;52.144;8.624;2023-12-04T11:38:20;7.45;;;4.05;;
62554;SDS011;48610;52.144;8.624;2023-12-04T11:41:22;8.90;;;4.75;;
62554;SDS011;48610;52.144;8.624;2023-12-04T11:44:24;5.68;;;3.85;;
62554;SDS011;48610;52.144;8.624;2023-12-04T11:47:27;3.35;;;2.83;;
62554;SDS011;48610;52.144;8.624;2023-12-04T11:50:28;12.18;;;5.85;;
62554;SDS011;48610;52.144;8.624;2023-12-04T11:53:30;8.10;;;5.18;;
62554;SDS011;48610;52.144;8.624;2023-12-04T11:56:31;5.93;;;3.88;;
62554;SDS011;48610;52.144;8.624;2023-12-04T11:59:34;5.80;;;3.60;;
62554;SDS011;48610;52.144;8.624;2023-12-04T12:02:41;3.88;;;2.83;;
62554;SDS011;48610;52.144;8.624;2023-12-04T12:05:48;9.20;;;5.25;;
62554;SDS011;48610;52.144;8.624;2023-12-04T12:08:50;7.43;;;4.28;;
62554;SDS011;48610;52.144;8.624;2023-12-04T12:11:51;7.82;;;4.63;;
62554;SDS011;48610;52.144;8.624;2023-12-04T12:14:53;7.90;;;5.03;;
62554;SDS011;48610;52.144;8.624;2023-12-04T12:17:54;8.05;;;5.80;;
62554;SDS011;48610;52.144;8.624;2023-12-04T12:20:55;10.15;;;6.40;;
62554;SDS011;48610;52.144;8.624;2023-12-04T12:23:56;3.42;;;2.40;;
62554;SDS011;48610;52.144;8.624;2023-12-04T12:26:57;6.45;;;3.97;;
62554;SDS011;48610;52.144;8.624;2023-12-04T12:29:58;2.22;;;1.75;;
62554;SDS011;48610;52.144;8.624;2023-12-04T12:32:58;7.80;;;4.43;;
62554;SDS011;48610;52.144;8.624;2023-12-04T12:35:59;10.05;;;5.78;;
62554;SDS011;48610;52.144;8.624;2023-12-04T12:39:03;4.20;;;2.70;;
62554;SDS011;48610;52.144;8.624;2023-12-04T12:42:05;11.60;;;5.65;;
62554;SDS011;48610;52.144;8.624;2023-12-04T12:45:08;10.13;;;5.15;;
62554;SDS011;48610;52.144;8.624;2023-12-04T12:48:14;2.22;;;2.03;;
62554;SDS011;48610;52.144;8.624;2023-12-04T12:51:15;5.13;;;4.13;;
62554;SDS011;48610;52.144;8.624;2023-12-04T12:54:17;6.93;;;3.80;;
62554;SDS011;48610;52.144;8.624;2023-12-04T12:57:24;7.60;;;4.18;;
62554;SDS011;48610;52.144;8.624;2023-12-04T13:00:26;8.23;;;4.65;;
62554;SDS011;48610;52.144;8.624;2023-12-04T13:03:28;10.13;;;4.47;;
62554;SDS011;48610;52.144;8.624;2023-12-04T13:06:31;7.22;;;4.85;;
62554;SDS011;48610;52.144;8.624;2023-12-04T13:09:33;11.70;;;6.00;;
62554;SDS011;48610;52.144;8.624;2023-12-04T13:12:35;2.72;;;2.17;;
62554;SDS011;48610;52.144;8.624;2023-12-04T13:15:36;6.25;;;3.38;;
62554;SDS011;48610;52.144;8.624;2023-12-04T13:18:37;6.35;;;4.13;;
62554;SDS011;48610;52.144;8.624;2023-12-04T13:21:38;4.38;;;2.53;;
62554;SDS011;48610;52.144;8.624;2023-12-04T13:24:39;7.57;;;4.90;;
62554;SDS011;48610;52.144;8.624;2023-12-04T13:27:41;3.60;;;2.80;;
62554;SDS011;48610;52.144;8.624;2023-12-04T13:30:42;7.97;;;4.43;;
62554;SDS011;48610;52.144;8.624;2023-12-04T13:33:44;5.47;;;3.60;;
62554;SDS011;48610;52.144;8.624;2023-12-04T13:36:46;8.38;;;4.35;;
62554;SDS011;48610;52.144;8.624;2023-12-04T13:39:46;7.30;;;4.70;;
62554;SDS011;48610;52.144;8.624;2023-12-04T13:42:47;5.57;;;3.80;;
62554;SDS011;48610;52.144;8.624;2023-12-04T13:46:07;2.33;;;2.03;;
62554;SDS011;48610;52.144;8.624;2023-12-04T13:49:09;6.07;;;4.22;;
62554;SDS011;48610;52.144;8.624;2023-12-04T13:52:10;3.35;;;2.95;;
62554;SDS011;48610;52.144;8.624;2023-12-04T13:55:11;6.78;;;4.10;;
62554;SDS011;48610;52.144;8.624;2023-12-04T13:58:19;4.88;;;3.38;;
62554;SDS011;48610;52.144;8.624;2023-12-04T14:01:42;4.82;;;3.55;;
62554;SDS011;48610;52.144;8.624;2023-12-04T14:04:43;3.72;;;3.03;;
62554;SDS011;48610;52.144;8.624;2023-12-04T14:07:44;4.90;;;3.22;;
62554;SDS011;48610;52.144;8.624;2023-12-04T14:10:45;8.25;;;4.53;;
62554;SDS011;48610;52.144;8.624;2023-12-04T14:13:45;2.40;;;1.40;;
62554;SDS011;48610;52.144;8.624;2023-12-04T14:16:46;6.47;;;4.30;;
62554;SDS011;48610;52.144;8.624;2023-12-04T14:19:48;11.77;;;3.88;;
62554;SDS011;48610;52.144;8.624;2023-12-04T14:22:49;2.65;;;2.35;;
62554;SDS011;48610;52.144;8.624;2023-12-04T14:25:50;6.28;;;4.03;;
62554;SDS011;48610;52.144;8.624;2023-12-04T14:28:51;6.70;;;4.45;;
62554;SDS011;48610;52.144;8.624;2023-12-04T14:31:52;6.30;;;3.75;;
62554;SDS011;48610;52.144;8.624;2023-12-04T14:34:52;3.40;;;2.92;;
62554;SDS011;48610;52.144;8.624;2023-12-04T14:37:55;3.55;;;2.58;;
62554;SDS011;48610;52.144;8.624;2023-12-04T14:40:55;6.13;;;3.50;;
62554;SDS011;48610;52.144;8.624;2023-12-04T14:43:56;4.10;;;3.30;;
62554;SDS011;48610;52.144;8.624;2023-12-04T14:46:57;8.88;;;4.40;;
62554;SDS011;48610;52.144;8.624;2023-12-04T14:49:58;6.45;;;4.00;;
62554;SDS011;48610;52.144;8.624;2023-12-04T14:52:59;5.75;;;3.88;;
62554;SDS011;48610;52.144;8.624;2023-12-04T14:56:13;7.03;;;4.50;;
62554;SDS011;48610;52.144;8.624;2023-12-04T14:59:32;5.05;;;3.47;;
62554;SDS011;48610;52.144;8.624;2023-12-04T15:02:55;4.45;;;3.15;;
62554;SDS011;48610;52.144;8.624;2023-12-04T15:06:22;7.05;;;3.47;;
62554;SDS011;48610;52.144;8.624;2023-12-04T15:09:58;3.50;;;2.63;;
62554;SDS011;48610;52.144;8.624;2023-12-04T15:13:17;6.07;;;4.00;;
62554;SDS011;48610;52.144;8.624;2023-12-04T15:16:30;4.88;;;3.42;;
62554;SDS011;48610;52.144;8.624;2023-12-04T15:19:31;7.32;;;4.65;;
62554;SDS011;48610;52.144;8.624;2023-12-04T15:22:48;3.60;;;3.08;;
62554;SDS011;48610;52.144;8.624;2023-12-04T15:25:48;3.75;;;2.90;;
62554;SDS011;48610;52.144;8.624;2023-12-04T15:28:49;8.80;;;4.68;;
62554;SDS011;48610;52.144;8.624;2023-12-04T15:31:50;5.72;;;3.47;;
62554;SDS011;48610;52.144;8.624;2023-12-04T15:34:50;7.40;;;5.05;;
62554;SDS011;48610;52.144;8.624;2023-12-04T15:37:51;2.78;;;2.40;;
62554;SDS011;48610;52.144;8.624;2023-12-04T15:40:52;5.15;;;4.07;;
62554;SDS011;48610;52.144;8.624;2023-12-04T15:43:53;3.22;;;2.30;;
62554;SDS011;48610;52.144;8.624;2023-12-04T15:46:54;1.70;;;1.60;;
62554;SDS011;48610;52.144;8.624;2023-12-04T15:49:55;3.65;;;2.47;;
62554;SDS011;48610;52.144;8.624;2023-12-04T15:52:56;6.32;;;4.18;;
62554;SDS011;48610;52.144;8.624;2023-12-04T15:55:56;3.45;;;2.75;;
62554;SDS011;48610;52.144;8.624;2023-12-04T15:58:57;2.97;;;2.55;;
62554;SDS011;48610;52.144;8.624;2023-12-04T16:01:58;5.95;;;3.63;;
62554;SDS011;48610;52.144;8.624;2023-12-04T16:04:58;4.85;;;3.15;;
62554;SDS011;48610;52.144;8.624;2023-12-04T16:07:59;2.67;;;2.10;;
62554;SDS011;48610;52.144;8.624;2023-12-04T16:11:00;3.67;;;3.05;;
62554;SDS011;48610;52.144;8.624;2023-12-04T16:14:00;6.40;;;3.85;;
62554;SDS011;48610;52.144;8.624;2023-12-04T16:17:01;6.35;;;3.28;;
62554;SDS011;48610;52.144;8.624;2023-12-04T16:20:02;5.45;;;3.95;;
62554;SDS011;48610;52.144;8.624;2023-12-04T16:23:05;7.45;;;4.45;;
62554;SDS011;48610;52.144;8.624;2023-12-04T16:26:06;3.00;;;2.45;;
62554;SDS011;48610;52.144;8.624;2023-12-04T16:29:07;5.97;;;3.80;;
62554;SDS011;48610;52.144;8.624;2023-12-04T16:32:07;6.22;;;4.32;;
62554;SDS011;48610;52.144;8.624;2023-12-04T16:35:08;5.55;;;3.38;;
62554;SDS011;48610;52.144;8.624;2023-12-04T16:38:09;5.78;;;3.95;;
62554;SDS011;48610;52.144;8.624;2023-12-04T16:41:11;4.07;;;2.55;;
62554;SDS011;48610;52.144;8.624;2023-12-04T16:47:19;2.13;;;1.88;;
62554;SDS011;48610;52.144;8.624;2023-12-04T16:50:19;6.75;;;4.50;;
62554;SDS011;48610;52.144;8.624;2023-12-04T16:53:20;5.70;;;2.90;;
62554;SDS011;48610;52.144;8.624;2023-12-04T16:56:21;3.25;;;2.17;;
62554;SDS011;48610;52.144;8.624;2023-12-04T16:59:21;5.75;;;3.65;;
62554;SDS011;48610;52.144;8.624;2023-12-04T17:02:22;2.42;;;1.52;;
62554;SDS011;48610;52.144;8.624;2023-12-04T17:05:24;5.18;;;3.55;;
62554;SDS011;48610;52.144;8.624;2023-12-04T17:08:25;2.58;;;2.38;;
62554;SDS011;48610;52.144;8.624;2023-12-04T17:11:25;6.57;;;4.72;;
62554;SDS011;48610;52.144;8.624;2023-12-04T17:14:26;3.85;;;2.88;;
62554;SDS011;48610;52.144;8.624;2023-12-04T17:17:26;2.28;;;2.10;;
62554;SDS011;48610;52.144;8.624;2023-12-04T17:20:27;4.85;;;3.28;;
62554;SDS011;48610;52.144;8.624;2023-12-04T17:23:28;0.52;;;0.52;;
62554;SDS011;48610;52.144;8.624;2023-12-04T17:26:28;3.45;;;2.85;;
62554;SDS011;48610;52.144;8.624;2023-12-04T17:29:29;3.08;;;1.95;;
62554;SDS011;48610;52.144;8.624;2023-12-04T17:32:30;6.35;;;4.38;;
62554;SDS011;48610;52.144;8.624;2023-12-04T17:35:30;2.00;;;1.85;;
62554;SDS011;48610;52.144;8.624;2023-12-04T17:38:31;2.13;;;1.77;;
62554;SDS011;48610;52.144;8.624;2023-12-04T17:41:32;4.43;;;3.67;;
62554;SDS011;48610;52.144;8.624;2023-12-04T17:44:33;5.38;;;3.78;;
62554;SDS011;48610;52.144;8.624;2023-12-04T17:47:34;4.18;;;3.22;;
62554;SDS011;48610;52.144;8.624;2023-12-04T17:50:34;5.15;;;3.63;;
62554;SDS011;48610;52.144;8.624;2023-12-04T17:53:35;5.10;;;2.58;;
62554;SDS011;48610;52.144;8.624;2023-12-04T17:56:36;5.13;;;3.40;;
62554;SDS011;48610;52.144;8.624;2023-12-04T17:59:36;4.53;;;3.53;;
62554;SDS011;48610;52.144;8.624;2023-12-04T18:02:38;1.92;;;1.63;;
62554;SDS011;48610;52.144;8.624;2023-12-04T18:05:39;4.85;;;3.00;;
62554;SDS011;48610;52.144;8.624;2023-12-04T18:08:41;4.60;;;2.75;;
62554;SDS011;48610;52.144;8.624;2023-12-04T18:11:42;1.63;;;1.52;;